createdAt,value
2022-12-03T00:00:41.105Z,33.70
2022-12-03T00:03:07.924Z,33.78
2022-12-03T00:05:34.679Z,33.20
2022-12-03T00:08:02.950Z,33.72
2022-12-03T00:10:29.713Z,33.42
2022-12-03T00:12:56.369Z,35.42
2022-12-03T00:15:23.064Z,32.97
2022-12-03T00:17:49.667Z,32.22
2022-12-03T00:20:21.894Z,34.88
2022-12-03T00:22:48.716Z,34.17
2022-12-03T00:25:15.429Z,33.08
2022-12-03T00:27:42.179Z,33.72
2022-12-03T00:30:09.926Z,32.22
2022-12-03T00:32:36.925Z,32.75
2022-12-03T00:35:03.643Z,32.65
2022-12-03T00:37:30.290Z,33.30
2022-12-03T00:39:57.108Z,31.80
2022-12-03T00:42:23.746Z,33.25
2022-12-03T00:44:50.422Z,33.53
2022-12-03T00:47:17.220Z,33.00
2022-12-03T00:49:43.868Z,33.15
2022-12-03T00:52:10.465Z,33.05
2022-12-03T00:54:37.137Z,31.33
2022-12-03T00:57:03.839Z,31.75
2022-12-03T00:59:30.587Z,31.50
2022-12-03T01:01:57.286Z,31.63
2022-12-03T01:04:24.078Z,30.90
2022-12-03T01:06:50.775Z,31.95
2022-12-03T01:09:17.412Z,31.65
2022-12-03T01:11:44.106Z,31.08
2022-12-03T01:14:13.458Z,31.40
2022-12-03T01:16:40.223Z,31.48
2022-12-03T01:19:07.835Z,31.58
2022-12-03T01:21:35.199Z,33.78
2022-12-03T01:24:01.972Z,32.88
2022-12-03T01:26:31.701Z,31.35
2022-12-03T01:28:58.427Z,32.15
2022-12-03T01:31:46.906Z,32.63
2022-12-03T01:34:13.608Z,33.00
2022-12-03T01:36:41.227Z,32.05
2022-12-03T01:39:07.873Z,33.20
2022-12-03T01:41:35.771Z,31.58
2022-12-03T01:44:02.869Z,30.80
2022-12-03T01:46:38.809Z,32.53
2022-12-03T01:49:05.887Z,32.22
2022-12-03T01:51:32.667Z,32.15
2022-12-03T01:54:00.926Z,29.80
2022-12-03T01:56:27.615Z,32.30
2022-12-03T01:58:54.528Z,32.92
2022-12-03T02:01:21.230Z,31.73
2022-12-03T02:03:48.007Z,31.23
2022-12-03T02:06:21.821Z,32.72
2022-12-03T02:08:49.329Z,33.47
2022-12-03T02:11:36.469Z,31.90
2022-12-03T02:14:06.784Z,32.60
2022-12-03T02:16:36.596Z,32.95
2022-12-03T02:19:04.877Z,31.90
2022-12-03T02:21:39.070Z,33.63
2022-12-03T02:24:14.641Z,33.05
2022-12-03T02:26:41.334Z,33.10
2022-12-03T02:29:07.954Z,32.65
2022-12-03T02:31:34.946Z,33.67
2022-12-03T02:34:06.495Z,33.00
2022-12-03T02:36:33.904Z,32.00
2022-12-03T02:39:00.889Z,32.78
2022-12-03T02:41:46.055Z,31.58
2022-12-03T02:44:12.797Z,33.35
2022-12-03T02:46:39.574Z,33.17
2022-12-03T02:49:06.335Z,32.42
2022-12-03T02:51:35.075Z,32.40
2022-12-03T02:54:02.192Z,31.58
2022-12-03T02:56:30.804Z,31.42
2022-12-03T02:59:00.369Z,32.42
2022-12-03T03:01:27.173Z,32.35
2022-12-03T03:03:54.282Z,33.45
2022-12-03T03:06:22.602Z,32.50
2022-12-03T03:08:49.431Z,31.83
2022-12-03T03:11:16.058Z,31.40
2022-12-03T03:13:46.082Z,32.30
2022-12-03T03:16:15.916Z,33.20
2022-12-03T03:18:42.811Z,32.88
2022-12-03T03:21:09.741Z,32.97
2022-12-03T03:23:36.559Z,34.53
2022-12-03T03:26:06.667Z,31.30
2022-12-03T03:28:36.597Z,32.05
2022-12-03T03:31:05.745Z,32.17
2022-12-03T03:33:32.849Z,32.60
2022-12-03T03:36:00.579Z,33.63
2022-12-03T03:38:27.612Z,32.70
2022-12-03T03:40:54.382Z,32.17
2022-12-03T03:43:22.004Z,33.40
2022-12-03T03:45:49.164Z,31.95
2022-12-03T03:48:15.959Z,32.92
2022-12-03T03:50:43.077Z,32.65
2022-12-03T03:53:10.007Z,32.13
2022-12-03T03:55:36.664Z,33.28
2022-12-03T03:58:03.422Z,31.85
2022-12-03T04:00:30.551Z,31.73
2022-12-03T04:02:57.415Z,31.70
2022-12-03T04:05:24.583Z,32.13
2022-12-03T04:07:54.277Z,32.50
2022-12-03T04:10:39.585Z,32.92
2022-12-03T04:13:09.300Z,31.65
2022-12-03T04:15:35.946Z,30.75
2022-12-03T04:18:24.457Z,29.73
2022-12-03T04:20:51.306Z,29.98
2022-12-03T04:23:17.944Z,31.70
2022-12-03T04:26:03.286Z,31.63
2022-12-03T04:28:48.669Z,28.75
2022-12-03T04:31:34.116Z,31.20
2022-12-03T04:34:22.641Z,31.25
2022-12-03T04:36:49.491Z,31.40
2022-12-03T04:39:16.190Z,32.22
2022-12-03T04:41:42.903Z,32.08
2022-12-03T04:44:28.219Z,30.42
2022-12-03T04:46:54.861Z,30.75
2022-12-03T04:49:21.798Z,31.67
2022-12-03T04:51:48.466Z,32.38
2022-12-03T04:54:15.259Z,30.67
2022-12-03T04:56:41.952Z,31.25
2022-12-03T04:59:15.746Z,30.13
2022-12-03T05:01:43.126Z,31.13
2022-12-03T05:04:09.794Z,31.30
2022-12-03T05:06:36.492Z,31.45
2022-12-03T05:09:03.629Z,28.92
2022-12-03T05:11:30.463Z,29.27
2022-12-03T05:14:00.147Z,30.58
2022-12-03T05:16:28.773Z,30.42
2022-12-03T05:18:55.481Z,30.13
2022-12-03T05:21:22.150Z,30.25
2022-12-03T05:23:49.081Z,31.13
2022-12-03T05:26:15.707Z,30.27
2022-12-03T05:28:42.337Z,31.17
2022-12-03T05:31:09.118Z,28.55
2022-12-03T05:33:40.880Z,30.52
2022-12-03T05:36:10.546Z,31.20
2022-12-03T05:38:37.262Z,31.33
2022-12-03T05:41:24.078Z,31.52
2022-12-03T05:43:51.002Z,31.70
2022-12-03T05:46:17.710Z,30.50
2022-12-03T05:48:44.512Z,30.25
2022-12-03T05:51:11.220Z,29.80
2022-12-03T05:53:37.868Z,30.67
2022-12-03T05:56:04.753Z,30.13
2022-12-03T05:58:31.441Z,30.25
2022-12-03T06:00:58.138Z,31.02
2022-12-03T06:03:25.024Z,31.60
2022-12-03T06:05:51.932Z,31.65
2022-12-03T06:08:18.637Z,32.05
2022-12-03T06:10:45.319Z,33.78
2022-12-03T06:13:11.938Z,32.33
2022-12-03T06:15:43.438Z,32.95
2022-12-03T06:18:10.827Z,32.85
2022-12-03T06:20:37.461Z,33.05
2022-12-03T06:23:04.128Z,33.70
2022-12-03T06:25:30.943Z,31.58
2022-12-03T06:27:57.601Z,33.88
2022-12-03T06:30:24.235Z,34.20
2022-12-03T06:32:50.877Z,32.67
2022-12-03T06:35:18.930Z,34.35
2022-12-03T06:37:45.570Z,34.60
2022-12-03T06:40:13.466Z,34.65
2022-12-03T06:42:40.116Z,32.95
2022-12-03T06:45:06.940Z,33.55
2022-12-03T06:47:33.783Z,33.67
2022-12-03T06:50:00.663Z,33.28
2022-12-03T06:52:27.403Z,34.33
2022-12-03T06:54:54.349Z,34.13
2022-12-03T06:57:21.199Z,32.08
2022-12-03T06:59:47.793Z,33.97
2022-12-03T07:02:14.440Z,34.92
2022-12-03T07:04:46.049Z,33.30
2022-12-03T07:07:13.412Z,34.33
2022-12-03T07:09:40.116Z,33.85
2022-12-03T07:12:06.848Z,35.63
2022-12-03T07:14:33.487Z,33.55
2022-12-03T07:17:03.238Z,34.10
2022-12-03T07:19:32.766Z,35.38
2022-12-03T07:22:00.386Z,35.28
2022-12-03T07:24:27.523Z,34.78
2022-12-03T07:26:54.334Z,34.40
2022-12-03T07:29:21.235Z,35.15
2022-12-03T07:31:48.023Z,34.95
2022-12-03T07:34:14.845Z,35.15
2022-12-03T07:36:41.768Z,37.30
2022-12-03T07:39:08.375Z,36.28
2022-12-03T07:41:35.163Z,40.97
2022-12-03T07:44:03.019Z,36.47
2022-12-03T07:46:29.890Z,35.47
2022-12-03T07:48:56.700Z,35.72
2022-12-03T07:51:26.184Z,34.85
2022-12-03T07:53:57.398Z,35.65
2022-12-03T07:56:24.178Z,35.88
2022-12-03T07:58:50.800Z,38.05
2022-12-03T08:01:17.776Z,37.45
2022-12-03T08:03:44.645Z,35.65
2022-12-03T08:06:11.316Z,35.25
2022-12-03T08:08:38.225Z,34.30
2022-12-03T08:11:06.492Z,35.70
2022-12-03T08:13:35.139Z,36.08
2022-12-03T08:16:06.766Z,35.55
2022-12-03T08:18:49.889Z,33.30
2022-12-03T08:21:21.827Z,34.03
2022-12-03T08:23:49.133Z,35.65
2022-12-03T08:26:25.133Z,34.90
2022-12-03T08:28:53.096Z,34.33
2022-12-03T08:31:33.215Z,35.50
2022-12-03T08:34:17.801Z,35.25
2022-12-03T08:36:45.253Z,34.53
2022-12-03T08:39:25.509Z,35.05
2022-12-03T08:42:27.874Z,34.50
2022-12-03T08:44:55.928Z,35.38
2022-12-03T08:47:24.130Z,33.88
2022-12-03T08:50:16.954Z,35.70
2022-12-03T08:52:43.736Z,35.83
2022-12-03T08:55:33.533Z,34.35
2022-12-03T08:58:00.477Z,35.63
2022-12-03T09:00:27.122Z,36.70
2022-12-03T09:02:55.493Z,36.03
2022-12-03T09:05:30.731Z,36.72
2022-12-03T09:07:59.468Z,35.20
2022-12-03T09:10:26.166Z,34.13
2022-12-03T09:12:53.342Z,36.50
2022-12-03T09:15:20.161Z,35.50
2022-12-03T09:17:49.790Z,35.05
2022-12-03T09:20:16.825Z,36.28
2022-12-03T09:22:43.633Z,35.53
2022-12-03T09:25:10.325Z,33.53
2022-12-03T09:27:37.438Z,43.40
2022-12-03T09:30:04.694Z,39.08
2022-12-03T09:32:31.571Z,36.67
2022-12-03T09:34:58.266Z,34.20
2022-12-03T09:37:24.883Z,35.53
2022-12-03T09:39:51.587Z,38.55
2022-12-03T09:42:18.312Z,37.00
2022-12-03T09:44:45.334Z,35.55
2022-12-03T09:47:11.937Z,36.50
2022-12-03T09:49:40.292Z,34.40
2022-12-03T09:52:07.498Z,35.53
2022-12-03T09:54:35.431Z,35.63
2022-12-03T09:57:04.428Z,35.58
2022-12-03T09:59:33.431Z,35.15
2022-12-03T10:02:00.651Z,34.22
2022-12-03T10:04:28.421Z,35.72
2022-12-03T10:06:56.385Z,34.15
2022-12-03T10:09:28.444Z,34.78
2022-12-03T10:11:56.876Z,35.35
2022-12-03T10:14:23.673Z,33.17
2022-12-03T10:16:50.698Z,36.35
2022-12-03T10:19:29.582Z,34.22
2022-12-03T10:21:56.347Z,34.40
2022-12-03T10:24:26.959Z,35.78
2022-12-03T10:26:57.106Z,34.67
2022-12-03T10:29:32.856Z,33.75
2022-12-03T10:32:03.054Z,32.63
2022-12-03T10:37:22.953Z,35.25
2022-12-03T10:40:10.854Z,32.28
2022-12-03T10:42:39.607Z,32.08
2022-12-03T10:45:18.495Z,31.95
2022-12-03T10:48:06.608Z,32.67
2022-12-03T10:50:34.834Z,33.00
2022-12-03T10:53:02.345Z,32.72
2022-12-03T10:55:39.826Z,34.20
2022-12-03T10:58:09.025Z,35.15
2022-12-03T11:00:35.812Z,35.28
2022-12-03T11:03:02.691Z,35.10
2022-12-03T11:05:29.400Z,33.90
2022-12-03T11:07:56.481Z,36.22
2022-12-03T11:10:23.825Z,35.83
2022-12-03T11:13:39.053Z,32.80
2022-12-03T11:16:08.327Z,34.38
2022-12-03T11:18:55.117Z,33.40
2022-12-03T11:21:21.937Z,33.88
2022-12-03T11:23:51.852Z,33.60
2022-12-03T11:26:19.978Z,35.25
2022-12-03T11:28:46.867Z,34.42
2022-12-03T11:31:40.871Z,34.55
2022-12-03T11:34:17.255Z,35.33
2022-12-03T11:37:12.133Z,33.92
2022-12-03T11:39:45.446Z,32.15
2022-12-03T11:42:25.786Z,33.85
2022-12-03T11:45:04.815Z,32.08
2022-12-03T11:48:01.040Z,33.22
2022-12-03T11:50:39.603Z,32.40
2022-12-03T11:53:13.196Z,33.88
2022-12-03T11:55:44.519Z,37.75
2022-12-03T11:58:27.174Z,33.50
2022-12-03T12:00:56.395Z,41.60
2022-12-03T12:03:34.131Z,38.47
2022-12-03T12:06:09.290Z,40.55
2022-12-03T12:08:42.631Z,39.55
2022-12-03T12:11:43.916Z,41.20
2022-12-03T12:14:12.225Z,32.15
2022-12-03T12:16:53.168Z,30.80
2022-12-03T12:19:33.656Z,30.63
2022-12-03T12:22:12.718Z,31.02
2022-12-03T12:24:48.623Z,31.58
2022-12-03T12:27:37.928Z,31.00
2022-12-03T12:30:19.799Z,30.92
2022-12-03T12:33:07.919Z,30.58
2022-12-03T12:35:34.896Z,31.08
2022-12-03T12:38:07.640Z,31.33
2022-12-03T12:40:36.990Z,31.20
2022-12-03T12:43:15.242Z,31.88
2022-12-03T12:45:44.871Z,31.92
2022-12-03T12:48:29.178Z,30.20
2022-12-03T12:51:10.519Z,32.30
2022-12-03T12:53:39.500Z,30.33
2022-12-03T12:56:30.517Z,31.45
2022-12-03T12:58:59.456Z,30.48
2022-12-03T13:01:29.776Z,30.02
2022-12-03T13:03:57.047Z,30.48
2022-12-03T13:06:28.869Z,30.17
2022-12-03T13:08:56.152Z,31.05
2022-12-03T13:11:45.788Z,31.98
2022-12-03T13:14:24.179Z,28.90
2022-12-03T13:16:53.444Z,30.60
2022-12-03T13:19:27.711Z,31.75
2022-12-03T13:21:56.665Z,30.55
2022-12-03T13:24:26.377Z,29.50
2022-12-03T13:26:53.255Z,28.98
2022-12-03T13:29:21.063Z,31.02
2022-12-03T13:31:59.713Z,30.90
2022-12-03T13:34:29.109Z,29.25
2022-12-03T13:39:48.182Z,29.90
2022-12-03T13:42:41.831Z,30.77
2022-12-03T13:45:14.735Z,27.67
2022-12-03T13:47:45.753Z,29.80
2022-12-03T13:50:36.762Z,28.30
2022-12-03T13:53:33.421Z,29.65
2022-12-03T13:56:18.798Z,27.88
2022-12-03T13:58:45.415Z,29.23
2022-12-03T14:01:12.257Z,28.70
2022-12-03T14:03:38.944Z,26.73
2022-12-03T14:06:05.738Z,28.33
2022-12-03T14:08:32.361Z,28.92
2022-12-03T14:11:00.920Z,27.42
2022-12-03T14:13:28.093Z,27.98
2022-12-03T14:15:54.708Z,27.20
2022-12-03T14:18:21.382Z,26.83
2022-12-03T14:20:48.433Z,26.17
2022-12-03T14:23:15.638Z,29.70
2022-12-03T14:25:44.072Z,26.65
2022-12-03T14:28:11.612Z,29.67
2022-12-03T14:30:38.243Z,27.55
2022-12-03T14:33:04.949Z,28.27
2022-12-03T14:35:31.607Z,27.48
2022-12-03T14:37:58.386Z,28.13
2022-12-03T14:40:26.077Z,29.23
2022-12-03T14:42:52.776Z,31.80
2022-12-03T14:45:20.852Z,31.30
2022-12-03T14:47:47.470Z,62.10
2022-12-03T14:50:14.607Z,38.92
2022-12-03T14:52:41.791Z,37.30
2022-12-03T14:55:09.033Z,35.30
2022-12-03T14:57:36.914Z,26.95
2022-12-03T15:00:05.582Z,27.05
2022-12-03T15:02:32.429Z,25.45
2022-12-03T15:04:59.289Z,25.27
2022-12-03T15:07:26.073Z,24.23
2022-12-03T15:09:53.055Z,24.70
2022-12-03T15:12:19.952Z,24.92
2022-12-03T15:14:47.745Z,27.27
2022-12-03T15:17:14.570Z,27.52
2022-12-03T15:19:41.656Z,26.95
2022-12-03T15:22:08.320Z,28.20
2022-12-03T15:24:35.212Z,26.33
2022-12-03T15:27:02.227Z,26.77
2022-12-03T15:29:29.094Z,26.33
2022-12-03T15:31:55.881Z,27.33
2022-12-03T15:34:23.376Z,26.88
2022-12-03T15:36:50.430Z,29.10
2022-12-03T15:39:17.304Z,27.08
2022-12-03T15:41:44.127Z,25.95
2022-12-03T15:44:11.012Z,24.92
2022-12-03T15:46:37.947Z,24.98
2022-12-03T15:49:05.016Z,27.05
2022-12-03T15:51:33.060Z,25.50
2022-12-03T15:54:00.074Z,26.80
2022-12-03T15:56:26.932Z,28.70
2022-12-03T15:58:53.841Z,29.20
2022-12-03T16:01:20.926Z,28.48
2022-12-03T16:03:47.778Z,28.17
2022-12-03T16:06:14.969Z,27.55
2022-12-03T16:08:41.779Z,29.08
2022-12-03T16:11:08.700Z,29.50
2022-12-03T16:13:35.593Z,28.58
2022-12-03T16:16:02.313Z,28.80
2022-12-03T16:18:29.110Z,27.33
2022-12-03T16:20:55.802Z,27.52
2022-12-03T16:23:22.590Z,29.17
2022-12-03T16:25:49.252Z,29.20
2022-12-03T16:28:15.890Z,27.73
2022-12-03T16:30:42.870Z,28.60
2022-12-03T16:33:09.910Z,28.42
2022-12-03T16:35:38.122Z,29.67
2022-12-03T16:38:04.926Z,26.60
2022-12-03T16:40:31.578Z,27.58
2022-12-03T16:42:58.932Z,26.98
2022-12-03T16:45:28.920Z,27.98
2022-12-03T16:47:55.910Z,28.45
2022-12-03T16:50:29.442Z,28.45
2022-12-03T16:52:57.436Z,27.35
2022-12-03T16:55:25.152Z,30.35
2022-12-03T16:57:52.273Z,29.15
2022-12-03T17:00:21.867Z,27.42
2022-12-03T17:02:49.589Z,29.08
2022-12-03T17:05:16.443Z,27.27
2022-12-03T17:07:43.255Z,28.15
2022-12-03T17:10:10.936Z,27.80
2022-12-03T17:13:07.830Z,27.52
2022-12-03T17:15:24.568Z,27.15
2022-12-03T17:17:54.362Z,28.20
2022-12-03T17:20:21.548Z,28.45
2022-12-03T17:22:48.393Z,27.27
2022-12-03T17:25:15.303Z,30.02
2022-12-03T17:27:45.075Z,27.55
2022-12-03T17:30:12.865Z,27.90
2022-12-03T17:32:39.808Z,27.92
2022-12-03T17:35:06.904Z,29.95
2022-12-03T17:37:33.846Z,28.50
2022-12-03T17:40:00.790Z,29.75
2022-12-03T17:42:27.531Z,40.97
2022-12-03T17:44:54.277Z,32.85
2022-12-03T17:47:24.255Z,31.55
2022-12-03T17:49:51.216Z,30.05
2022-12-03T17:52:18.038Z,31.63
2022-12-03T17:55:08.987Z,28.42
2022-12-03T17:57:31.815Z,32.03
2022-12-03T17:59:58.718Z,37.47
2022-12-03T18:02:25.606Z,28.90
2022-12-03T18:04:52.288Z,29.60
2022-12-03T18:07:19.118Z,34.05
2022-12-03T18:09:45.820Z,30.95
2022-12-03T18:12:12.971Z,30.05
2022-12-03T18:14:39.670Z,28.67
2022-12-03T18:17:06.603Z,26.55
2022-12-03T18:19:33.566Z,27.42
2022-12-03T18:22:00.303Z,26.85
2022-12-03T18:24:27.342Z,29.45
2022-12-03T18:26:54.273Z,27.85
2022-12-03T18:29:21.643Z,27.27
2022-12-03T18:31:48.662Z,28.35
2022-12-03T18:34:15.459Z,27.40
2022-12-03T18:36:42.385Z,26.90
2022-12-03T18:39:15.003Z,26.38
2022-12-03T18:41:41.887Z,32.85
2022-12-03T18:44:10.050Z,29.63
2022-12-03T18:46:52.938Z,28.33
2022-12-03T18:49:20.448Z,30.55
2022-12-03T18:51:48.296Z,46.15
2022-12-03T18:54:15.389Z,29.13
2022-12-03T18:56:42.186Z,29.02
2022-12-03T18:59:09.010Z,29.48
2022-12-03T19:01:36.082Z,30.75
2022-12-03T19:04:02.936Z,30.20
2022-12-03T19:06:30.708Z,31.13
2022-12-03T19:08:57.863Z,30.60
2022-12-03T19:11:24.881Z,29.10
2022-12-03T19:13:53.121Z,28.58
2022-12-03T19:16:20.201Z,26.23
2022-12-03T19:18:47.261Z,29.08
2022-12-03T19:21:15.551Z,28.00
2022-12-03T19:24:04.215Z,32.17
2022-12-03T19:26:30.566Z,28.73
2022-12-03T19:28:57.666Z,31.55
2022-12-03T19:31:24.498Z,28.10
2022-12-03T19:33:51.982Z,28.58
2022-12-03T19:36:19.981Z,27.05
2022-12-03T19:38:53.489Z,27.70
2022-12-03T19:41:23.986Z,27.40
2022-12-03T19:43:52.624Z,28.40
2022-12-03T19:46:20.768Z,27.73
2022-12-03T19:48:47.942Z,26.42
2022-12-03T19:51:33.612Z,27.08
2022-12-03T19:54:01.207Z,30.60
2022-12-03T19:56:30.426Z,29.70
2022-12-03T19:58:57.895Z,29.67
2022-12-03T20:01:27.088Z,29.08
2022-12-03T20:03:55.656Z,29.55
2022-12-03T20:06:25.676Z,32.65
2022-12-03T20:09:00.109Z,30.23
2022-12-03T20:11:32.021Z,30.98
2022-12-03T20:14:01.336Z,31.52
2022-12-03T20:16:28.657Z,31.90
2022-12-03T20:19:00.535Z,32.03
2022-12-03T20:21:29.979Z,31.27
2022-12-03T20:23:56.838Z,29.98
2022-12-03T20:26:24.211Z,31.33
2022-12-03T20:28:53.352Z,30.15
2022-12-03T20:31:22.306Z,29.63
2022-12-03T20:33:51.414Z,29.25
2022-12-03T20:36:20.087Z,30.08
2022-12-03T20:38:47.585Z,30.85
2022-12-03T20:41:16.953Z,30.15
2022-12-03T20:43:43.629Z,30.17
2022-12-03T20:46:32.649Z,32.20
2022-12-03T20:48:59.879Z,29.85
2022-12-03T20:51:29.779Z,30.77
2022-12-03T20:53:57.851Z,30.25
2022-12-03T20:56:31.666Z,31.88
2022-12-03T20:59:04.949Z,31.80
2022-12-03T21:01:31.893Z,34.00
2022-12-03T21:03:58.832Z,30.98
2022-12-03T21:06:27.939Z,30.85
2022-12-03T21:08:56.278Z,30.63
2022-12-03T21:11:25.066Z,31.10
2022-12-03T21:13:53.047Z,31.02
2022-12-03T21:16:34.526Z,31.20
2022-12-03T21:19:09.715Z,31.45
2022-12-03T21:21:36.988Z,30.85
2022-12-03T21:24:03.864Z,30.83
2022-12-03T21:26:30.758Z,31.38
2022-12-03T21:28:57.407Z,30.80
2022-12-03T21:31:26.036Z,31.10
2022-12-03T21:33:53.912Z,31.05
2022-12-03T21:36:20.668Z,30.08
2022-12-03T21:38:48.360Z,33.20
2022-12-03T21:41:15.620Z,31.95
2022-12-03T21:43:43.205Z,32.67
2022-12-03T21:47:09.146Z,31.30
2022-12-03T21:49:00.181Z,32.55
2022-12-03T21:51:27.028Z,33.13
2022-12-03T21:53:53.745Z,33.53
2022-12-03T21:56:20.517Z,31.40
2022-12-03T21:58:47.751Z,32.92
2022-12-03T22:01:17.975Z,32.15
2022-12-03T22:03:45.585Z,32.58
2022-12-03T22:06:12.448Z,33.58
2022-12-03T22:08:39.340Z,33.13
2022-12-03T22:11:17.719Z,31.55
2022-12-03T22:13:44.970Z,31.45
2022-12-03T22:16:21.683Z,31.45
2022-12-03T22:18:49.001Z,35.95
2022-12-03T22:21:17.792Z,34.13
2022-12-03T22:23:45.409Z,32.22
2022-12-03T22:26:15.025Z,34.50
2022-12-03T22:28:47.180Z,33.47
2022-12-03T22:31:14.869Z,34.15
2022-12-03T22:33:43.609Z,32.47
2022-12-03T22:36:19.673Z,32.45
2022-12-03T22:38:48.091Z,34.00
2022-12-03T22:41:14.980Z,34.38
2022-12-03T22:43:42.333Z,33.85
2022-12-03T22:46:12.970Z,38.70
2022-12-03T22:48:41.590Z,33.40
2022-12-03T22:51:15.348Z,36.53
2022-12-03T22:53:42.285Z,34.90
2022-12-03T22:56:09.188Z,34.80
2022-12-03T22:58:37.800Z,36.95
2022-12-03T23:01:05.219Z,35.35
2022-12-03T23:03:32.263Z,36.58
2022-12-03T23:05:58.924Z,35.38
2022-12-03T23:08:25.658Z,36.42
2022-12-03T23:10:53.312Z,34.97
2022-12-03T23:13:20.882Z,35.63
2022-12-03T23:15:49.864Z,35.97
2022-12-03T23:18:17.200Z,35.40
2022-12-03T23:20:49.463Z,34.45
2022-12-03T23:23:16.791Z,36.08
2022-12-03T23:25:43.890Z,34.85
2022-12-03T23:28:11.068Z,37.67
2022-12-03T23:30:38.719Z,35.42
2022-12-03T23:33:05.919Z,34.38
2022-12-03T23:35:33.065Z,35.28
2022-12-03T23:37:59.782Z,37.33
2022-12-03T23:40:26.579Z,35.20
2022-12-03T23:42:53.264Z,35.70
2022-12-03T23:45:19.993Z,36.30
2022-12-03T23:47:46.690Z,35.05
2022-12-03T23:50:13.507Z,36.58
2022-12-03T23:52:40.284Z,35.33
2022-12-03T23:55:07.230Z,36.70
2022-12-03T23:57:34.328Z,37.03
